createdAt,value
2023-05-06T00:00:20.934Z,51342.84
2023-05-06T00:02:48.238Z,51317.00
2023-05-06T00:05:18.498Z,51317.00
2023-05-06T00:07:48.588Z,51319.00
2023-05-06T00:10:16.302Z,51317.00
2023-05-06T00:12:43.308Z,51283.22
2023-05-06T00:15:11.618Z,51322.97
2023-05-06T00:17:38.987Z,51277.25
2023-05-06T00:20:07.311Z,51313.03
2023-05-06T00:22:34.557Z,51291.16
2023-05-06T00:25:01.901Z,51317.00
2023-05-06T00:27:29.014Z,51324.97
2023-05-06T00:29:57.963Z,51311.06
2023-05-06T00:32:25.090Z,51299.13
2023-05-06T00:34:52.162Z,51303.09
2023-05-06T00:37:19.287Z,51317.00
2023-05-06T00:39:46.328Z,51295.16
2023-05-06T00:42:13.593Z,51321.00
2023-05-06T00:44:40.701Z,51303.09
2023-05-06T00:47:08.518Z,51289.19
2023-05-06T00:49:35.722Z,51313.03
2023-05-06T00:52:03.802Z,51305.09
2023-05-06T00:54:30.941Z,51299.13
2023-05-06T00:56:58.229Z,51301.09
2023-05-06T00:59:25.525Z,51311.06
2023-05-06T01:01:54.035Z,51289.19
2023-05-06T01:04:24.055Z,51293.16
2023-05-06T01:07:24.850Z,51293.16
2023-05-06T01:10:01.311Z,51285.19
2023-05-06T01:12:44.471Z,51305.09
2023-05-06T01:15:22.711Z,51295.16
2023-05-06T01:17:53.619Z,51291.16
2023-05-06T01:20:22.119Z,51313.03
2023-05-06T01:22:50.323Z,51295.16
2023-05-06T01:25:23.966Z,51293.16
2023-05-06T01:27:51.214Z,51285.19
2023-05-06T01:30:19.787Z,51285.19
2023-05-06T01:33:07.137Z,51299.13
2023-05-06T01:35:48.092Z,51303.09
2023-05-06T01:38:24.877Z,51303.09
2023-05-06T01:40:55.649Z,51299.13
2023-05-06T01:43:29.379Z,51289.19
2023-05-06T01:45:57.373Z,51293.16
2023-05-06T01:48:28.562Z,51293.16
2023-05-06T01:50:55.962Z,51283.22
2023-05-06T01:53:23.086Z,51297.13
2023-05-06T01:55:50.283Z,51307.06
2023-05-06T01:58:17.478Z,51315.03
2023-05-06T02:00:44.577Z,51293.16
2023-05-06T02:03:12.462Z,51289.19
2023-05-06T02:05:39.747Z,51293.16
2023-05-06T02:08:07.468Z,51295.16
2023-05-06T02:10:34.668Z,51273.28
2023-05-06T02:13:05.928Z,51271.28
2023-05-06T02:15:33.138Z,51301.09
2023-05-06T02:18:01.629Z,51299.13
2023-05-06T02:20:28.838Z,51269.31
2023-05-06T02:22:56.363Z,51297.13
2023-05-06T02:25:23.514Z,51301.09
2023-05-06T02:27:50.646Z,51285.19
2023-05-06T02:30:17.751Z,51269.31
2023-05-06T02:32:44.890Z,51297.13
2023-05-06T02:35:12.227Z,51305.09
2023-05-06T02:37:39.474Z,51291.16
2023-05-06T02:40:07.635Z,51303.09
2023-05-06T02:42:35.885Z,51271.28
2023-05-06T02:45:03.436Z,51297.13
2023-05-06T02:47:32.657Z,51307.06
2023-05-06T02:49:59.798Z,51305.09
2023-05-06T02:52:27.039Z,51305.09
2023-05-06T02:54:54.226Z,51301.09
2023-05-06T02:57:21.530Z,51275.25
2023-05-06T02:59:48.674Z,51277.25
2023-05-06T03:02:15.825Z,51313.03
2023-05-06T03:04:42.926Z,51324.97
2023-05-06T03:07:10.244Z,51303.09
2023-05-06T03:09:37.604Z,51301.09
2023-05-06T03:12:06.270Z,51293.16
2023-05-06T03:14:33.570Z,51287.19
2023-05-06T03:17:00.848Z,51299.13
2023-05-06T03:19:27.929Z,51297.13
2023-05-06T03:21:55.242Z,51305.09
2023-05-06T03:24:22.494Z,51311.06
2023-05-06T03:26:49.643Z,51283.22
2023-05-06T03:29:16.781Z,51293.16
2023-05-06T03:31:45.845Z,51293.16
2023-05-06T03:34:13.542Z,51313.03
2023-05-06T03:36:41.338Z,51295.16
2023-05-06T03:39:08.464Z,51321.00
2023-05-06T03:41:37.657Z,51291.16
2023-05-06T03:44:05.282Z,51291.16
2023-05-06T03:46:32.917Z,51322.97
2023-05-06T03:49:02.838Z,51305.09
2023-05-06T03:51:30.857Z,51309.06
2023-05-06T03:53:58.370Z,51305.09
2023-05-06T03:56:25.507Z,51305.09
2023-05-06T03:58:55.427Z,51311.06
2023-05-06T04:01:25.125Z,51319.00
2023-05-06T04:03:54.426Z,51293.16
2023-05-06T04:06:23.578Z,51319.00
2023-05-06T04:08:50.700Z,51295.16
2023-05-06T04:11:18.754Z,51303.09
2023-05-06T04:13:47.092Z,51311.06
2023-05-06T04:16:17.670Z,51315.03
2023-05-06T04:18:46.245Z,51275.25
2023-05-06T04:21:15.882Z,51289.19
2023-05-06T04:23:48.347Z,51295.16
2023-05-06T04:26:19.470Z,51307.06
2023-05-06T04:28:47.345Z,51321.00
2023-05-06T04:31:15.643Z,51303.09
2023-05-06T04:33:45.940Z,51285.19
2023-05-06T04:36:19.817Z,51313.03
2023-05-06T04:39:01.026Z,51299.13
2023-05-06T04:41:31.331Z,51342.84
2023-05-06T04:43:59.254Z,51319.00
2023-05-06T04:46:26.534Z,51324.97
2023-05-06T04:48:55.187Z,51324.97
2023-05-06T04:51:23.651Z,51322.97
2023-05-06T04:53:51.413Z,51321.00
2023-05-06T04:56:19.047Z,51348.81
2023-05-06T04:58:49.646Z,51313.03
2023-05-06T05:01:17.169Z,51322.97
2023-05-06T05:03:44.766Z,51328.94
2023-05-06T05:06:13.749Z,51344.84
2023-05-06T05:08:40.869Z,51322.97
2023-05-06T05:11:09.395Z,51332.91
2023-05-06T05:13:37.202Z,51336.91
2023-05-06T05:16:06.751Z,51317.00
2023-05-06T05:18:36.843Z,51326.94
2023-05-06T05:21:11.086Z,51328.94
2023-05-06T05:23:38.261Z,51326.94
2023-05-06T05:26:05.636Z,51303.09
2023-05-06T05:28:32.744Z,51336.91
2023-05-06T05:31:05.680Z,51324.97
2023-05-06T05:33:35.788Z,51321.00
2023-05-06T05:36:06.088Z,51326.94
2023-05-06T05:38:34.261Z,51322.97
2023-05-06T05:41:01.492Z,51326.94
2023-05-06T05:43:29.385Z,51328.94
2023-05-06T05:45:56.488Z,51313.03
2023-05-06T05:48:24.111Z,51317.00
2023-05-06T05:50:52.018Z,51299.13
2023-05-06T05:53:20.080Z,51328.94
2023-05-06T05:55:47.173Z,51293.16
2023-05-06T05:58:14.997Z,51309.06
2023-05-06T06:00:43.430Z,51285.19
2023-05-06T06:03:14.898Z,51317.00
2023-05-06T06:05:42.015Z,51281.22
2023-05-06T06:08:10.149Z,51313.03
2023-05-06T06:10:37.404Z,51319.00
2023-05-06T06:13:10.879Z,51301.09
2023-05-06T06:15:38.051Z,51287.19
2023-05-06T06:18:08.156Z,51305.09
2023-05-06T06:20:36.872Z,51322.97
2023-05-06T06:23:03.993Z,51299.13
2023-05-06T06:25:31.288Z,51291.16
2023-05-06T06:27:58.807Z,51309.06
2023-05-06T06:30:26.017Z,51319.00
2023-05-06T06:32:55.028Z,51328.94
2023-05-06T06:35:23.499Z,51317.00
2023-05-06T06:37:51.061Z,51340.88
2023-05-06T06:40:18.195Z,51297.13
2023-05-06T06:42:46.523Z,51324.97
2023-05-06T06:45:32.721Z,51342.84
2023-05-06T06:47:59.877Z,51305.09
2023-05-06T06:50:26.981Z,51332.91
2023-05-06T06:52:54.073Z,51324.97
2023-05-06T06:55:21.793Z,51332.91
2023-05-06T06:57:49.251Z,51344.84
2023-05-06T07:00:16.884Z,51342.84
2023-05-06T07:02:44.525Z,51338.88
2023-05-06T07:05:11.786Z,51328.94
2023-05-06T07:07:39.118Z,51313.03
2023-05-06T07:10:07.316Z,51324.97
2023-05-06T07:12:34.452Z,51334.91
2023-05-06T07:15:01.519Z,51338.88
2023-05-06T07:17:28.576Z,51330.94
2023-05-06T07:19:55.760Z,51340.88
2023-05-06T07:22:22.837Z,51330.94
2023-05-06T07:24:49.917Z,51321.00
2023-05-06T07:27:16.975Z,51321.00
2023-05-06T07:29:44.040Z,51324.97
2023-05-06T07:32:11.199Z,51315.03
2023-05-06T07:34:39.017Z,51315.03
2023-05-06T07:37:08.041Z,51344.84
2023-05-06T07:39:35.411Z,51321.00
2023-05-06T07:42:02.481Z,51354.78
2023-05-06T07:44:29.540Z,51328.94
2023-05-06T07:46:56.814Z,51313.03
2023-05-06T07:49:24.217Z,51328.94
2023-05-06T07:51:51.741Z,51324.97
2023-05-06T07:54:19.095Z,51342.84
2023-05-06T07:56:46.323Z,51350.81
2023-05-06T07:59:13.498Z,51352.78
2023-05-06T08:01:40.770Z,51348.81
2023-05-06T08:04:08.025Z,51330.94
2023-05-06T08:06:35.358Z,51313.03
2023-05-06T08:09:02.750Z,51321.00
2023-05-06T08:11:30.262Z,51315.03
2023-05-06T08:13:57.648Z,51350.81
2023-05-06T08:16:25.548Z,51342.84
2023-05-06T08:18:53.013Z,51326.94
2023-05-06T08:21:20.234Z,51350.81
2023-05-06T08:23:47.768Z,51344.84
2023-05-06T08:26:15.110Z,51324.97
2023-05-06T08:28:42.331Z,51289.19
2023-05-06T08:31:09.499Z,51332.91
2023-05-06T08:33:36.696Z,51344.84
2023-05-06T08:36:07.025Z,51350.81
2023-05-06T08:38:34.413Z,51332.91
2023-05-06T08:41:09.818Z,51319.00
2023-05-06T08:43:42.678Z,51322.97
2023-05-06T08:46:09.942Z,51348.81
2023-05-06T08:48:37.677Z,51324.97
2023-05-06T08:51:05.442Z,51317.00
2023-05-06T08:53:34.124Z,51321.00
2023-05-06T08:56:11.644Z,51311.06
2023-05-06T08:58:41.526Z,51346.84
2023-05-06T09:01:09.528Z,51321.00
2023-05-06T09:03:36.967Z,51301.09
2023-05-06T09:06:04.654Z,51348.81
2023-05-06T09:08:32.035Z,51328.94
2023-05-06T09:10:59.826Z,51336.91
2023-05-06T09:13:26.995Z,51309.06
2023-05-06T09:15:55.349Z,51338.88
2023-05-06T09:18:23.217Z,51346.84
2023-05-06T09:20:50.630Z,51305.09
2023-05-06T09:23:18.592Z,51338.88
2023-05-06T09:25:51.380Z,51342.84
2023-05-06T09:28:18.744Z,51342.84
2023-05-06T09:30:48.005Z,51356.78
2023-05-06T09:33:15.484Z,51360.75
2023-05-06T09:35:44.386Z,51336.91
2023-05-06T09:38:11.748Z,51332.91
2023-05-06T09:40:39.885Z,51342.84
2023-05-06T09:43:07.842Z,51356.78
2023-05-06T09:45:36.359Z,51368.69
2023-05-06T09:48:04.055Z,51370.69
2023-05-06T09:50:32.653Z,51364.72
2023-05-06T09:53:03.740Z,51336.91
2023-05-06T09:55:31.349Z,51352.78
2023-05-06T09:57:59.518Z,51340.88
2023-05-06T10:00:29.063Z,51358.75
2023-05-06T10:02:57.129Z,51360.75
2023-05-06T10:05:26.520Z,51307.06
2023-05-06T10:07:55.035Z,51305.09
2023-05-06T10:10:24.866Z,51319.00
2023-05-06T10:12:53.417Z,51338.88
2023-05-06T10:15:20.698Z,51338.88
2023-05-06T10:17:50.472Z,51346.84
2023-05-06T10:20:21.348Z,51336.91
2023-05-06T10:23:07.985Z,51360.75
2023-05-06T10:25:41.117Z,51344.84
2023-05-06T10:28:19.828Z,51390.56
2023-05-06T10:30:58.673Z,51350.81
2023-05-06T10:33:28.417Z,51392.56
2023-05-06T10:36:20.493Z,51364.72
2023-05-06T10:38:54.951Z,51342.84
2023-05-06T10:41:23.806Z,51358.75
2023-05-06T10:43:56.885Z,51352.78
2023-05-06T10:46:26.953Z,51360.75
2023-05-06T10:49:06.546Z,51384.59
2023-05-06T10:51:35.180Z,51362.75
2023-05-06T10:54:20.502Z,51368.69
2023-05-06T10:56:50.995Z,51342.84
2023-05-06T10:59:24.513Z,51340.88
2023-05-06T11:02:08.023Z,51336.91
2023-05-06T11:04:35.556Z,51336.91
2023-05-06T11:07:18.503Z,51336.91
2023-05-06T11:10:06.252Z,51338.88
2023-05-06T11:12:52.592Z,51334.91
2023-05-06T11:15:43.170Z,51344.84
2023-05-06T11:18:29.176Z,51334.91
2023-05-06T11:21:04.609Z,51350.81
2023-05-06T11:23:47.018Z,51376.66
2023-05-06T11:26:15.104Z,51354.78
2023-05-06T11:28:50.582Z,51348.81
2023-05-06T11:31:21.029Z,51340.88
2023-05-06T11:33:50.395Z,51380.63
2023-05-06T11:36:19.620Z,51360.75
2023-05-06T11:38:49.694Z,51392.56
2023-05-06T11:41:17.579Z,51376.66
2023-05-06T11:43:52.170Z,51392.56
2023-05-06T11:46:21.275Z,51394.53
2023-05-06T11:48:49.478Z,51436.28
2023-05-06T11:51:22.073Z,51428.34
2023-05-06T11:53:49.166Z,51440.28
2023-05-06T11:56:16.267Z,51436.28
2023-05-06T11:58:44.200Z,51428.34
2023-05-06T12:01:11.269Z,51412.44
2023-05-06T12:03:38.525Z,51372.69
2023-05-06T12:06:06.196Z,51414.44
2023-05-06T12:08:35.142Z,51382.63
2023-05-06T12:11:06.355Z,51432.31
2023-05-06T12:13:36.871Z,51456.19
2023-05-06T12:16:08.319Z,51476.06
2023-05-06T12:18:36.266Z,51452.19
2023-05-06T12:21:03.848Z,51436.28
2023-05-06T12:23:31.156Z,51456.19
2023-05-06T12:26:05.120Z,51414.44
2023-05-06T12:28:35.284Z,51414.44
2023-05-06T12:31:24.392Z,51426.34
2023-05-06T12:33:51.802Z,51507.88
2023-05-06T12:36:19.834Z,51515.81
2023-05-06T12:38:57.775Z,51488.00
2023-05-06T12:41:36.829Z,51464.13
2023-05-06T12:44:37.666Z,51452.19
2023-05-06T12:47:27.303Z,51426.34
2023-05-06T12:50:00.797Z,51448.22
2023-05-06T12:52:30.285Z,51488.00
2023-05-06T12:55:00.868Z,51503.91
2023-05-06T12:57:28.189Z,51547.63
2023-05-06T12:59:56.450Z,51555.59
2023-05-06T13:02:23.703Z,51491.97
2023-05-06T13:04:51.094Z,51495.94
2023-05-06T13:07:18.260Z,51519.81
2023-05-06T13:09:45.503Z,51480.03
2023-05-06T13:12:13.097Z,51531.72
2023-05-06T13:14:40.561Z,51565.53
2023-05-06T13:17:08.495Z,51565.53
2023-05-06T13:19:36.022Z,51547.63
2023-05-06T13:22:03.313Z,51523.78
2023-05-06T13:24:32.174Z,51476.06
2023-05-06T13:27:01.265Z,51521.78
2023-05-06T13:29:29.654Z,51446.25
2023-05-06T13:31:57.052Z,51408.47
2023-05-06T13:34:24.296Z,51420.41
2023-05-06T13:36:52.105Z,51406.47
2023-05-06T13:39:19.872Z,51418.41
2023-05-06T13:41:48.248Z,51426.34
2023-05-06T13:44:18.648Z,51448.22
2023-05-06T13:46:46.854Z,51585.41
2023-05-06T13:49:18.466Z,51593.38
2023-05-06T13:51:45.690Z,51698.75
2023-05-06T13:54:12.948Z,51931.38
2023-05-06T13:56:40.129Z,51814.06
2023-05-06T13:59:08.349Z,51728.56
2023-05-06T14:01:36.130Z,51647.03
2023-05-06T14:04:03.456Z,51567.50
2023-05-06T14:06:31.202Z,51525.75
2023-05-06T14:08:58.449Z,51491.97
2023-05-06T14:11:26.129Z,51458.16
2023-05-06T14:13:55.860Z,51472.09
2023-05-06T14:16:24.226Z,51436.28
2023-05-06T14:18:51.418Z,51505.88
2023-05-06T14:21:18.496Z,51440.28
2023-05-06T14:23:45.767Z,51456.19
2023-05-06T14:26:14.186Z,51495.94
2023-05-06T14:28:41.473Z,51495.94
2023-05-06T14:31:08.729Z,51458.16
2023-05-06T14:33:37.970Z,51432.31
2023-05-06T14:36:06.037Z,51440.28
2023-05-06T14:38:36.194Z,51458.16
2023-05-06T14:41:03.283Z,51472.09
2023-05-06T14:43:30.618Z,51484.00
2023-05-06T14:45:57.670Z,51559.56
2023-05-06T14:48:25.500Z,51489.97
2023-05-06T14:50:53.120Z,51547.63
2023-05-06T14:53:20.182Z,51541.66
2023-05-06T14:55:48.902Z,51563.53
2023-05-06T14:58:16.068Z,51557.56
2023-05-06T15:00:43.436Z,51543.66
2023-05-06T15:03:10.674Z,51493.94
2023-05-06T15:05:38.129Z,51478.03
2023-05-06T15:08:06.849Z,51499.91
2023-05-06T15:10:33.947Z,51476.06
2023-05-06T15:13:01.165Z,51458.16
2023-05-06T15:15:28.370Z,51444.25
2023-05-06T15:17:55.457Z,51444.25
2023-05-06T15:20:22.636Z,51444.25
2023-05-06T15:22:49.822Z,51420.41
2023-05-06T15:25:30.270Z,51430.34
2023-05-06T15:28:01.838Z,51426.34
2023-05-06T15:30:29.001Z,51446.25
2023-05-06T15:32:56.104Z,51456.19
2023-05-06T15:35:23.651Z,51446.25
2023-05-06T15:37:58.528Z,51446.25
2023-05-06T15:40:26.611Z,51444.25
2023-05-06T15:42:53.897Z,51452.19
2023-05-06T15:45:22.171Z,51438.28
2023-05-06T15:47:49.317Z,51444.25
2023-05-06T15:50:31.690Z,51517.81
2023-05-06T15:53:01.270Z,51567.50
2023-05-06T15:55:28.904Z,51537.69
2023-05-06T15:57:57.965Z,51507.88
2023-05-06T16:00:27.884Z,51537.69
2023-05-06T16:02:55.224Z,51454.19
2023-05-06T16:05:22.616Z,51478.03
2023-05-06T16:07:49.787Z,51450.22
2023-05-06T16:10:17.077Z,51452.19
2023-05-06T16:12:44.268Z,51452.19
2023-05-06T16:15:11.912Z,51446.25
2023-05-06T16:17:39.086Z,51458.16
2023-05-06T16:20:10.379Z,51432.31
2023-05-06T16:22:40.171Z,51454.19
2023-05-06T16:25:07.963Z,51420.41
2023-05-06T16:27:35.549Z,51460.16
2023-05-06T16:30:02.898Z,51456.19
2023-05-06T16:32:31.098Z,51523.78
2023-05-06T16:34:59.482Z,51474.06
2023-05-06T16:37:28.276Z,51470.09
2023-05-06T16:39:55.980Z,51474.06
2023-05-06T16:42:23.272Z,51470.09
2023-05-06T16:44:51.228Z,51450.22
2023-05-06T16:47:23.458Z,51460.16
2023-05-06T16:49:51.176Z,51408.47
2023-05-06T16:52:19.548Z,51426.34
2023-05-06T16:54:46.679Z,51422.38
2023-05-06T16:57:13.843Z,51410.44
2023-05-06T16:59:40.993Z,51408.47
2023-05-06T17:02:08.249Z,51408.47
2023-05-06T17:04:36.789Z,51402.50
2023-05-06T17:07:04.441Z,51396.53
2023-05-06T17:09:31.561Z,51380.63
2023-05-06T17:11:58.847Z,51378.66
2023-05-06T17:14:26.149Z,51396.53
2023-05-06T17:16:53.374Z,51388.59
2023-05-06T17:19:20.547Z,51406.47
2023-05-06T17:21:47.647Z,51372.69
2023-05-06T17:24:14.725Z,51364.72
2023-05-06T17:26:41.804Z,51350.81
2023-05-06T17:29:08.880Z,51356.78
2023-05-06T17:31:36.010Z,51344.84
2023-05-06T17:34:03.897Z,51336.91
2023-05-06T17:36:31.700Z,51378.66
2023-05-06T17:39:04.941Z,51344.84
2023-05-06T17:41:32.651Z,51364.72
2023-05-06T17:43:59.964Z,51368.69
2023-05-06T17:46:28.641Z,51380.63
2023-05-06T17:48:55.901Z,51364.72
2023-05-06T17:51:23.250Z,51380.63
2023-05-06T17:53:51.184Z,51380.63
2023-05-06T17:56:20.279Z,51382.63
2023-05-06T17:58:48.222Z,51372.69
2023-05-06T18:01:15.670Z,51368.69
2023-05-06T18:03:44.076Z,51364.72
2023-05-06T18:06:14.493Z,51336.91
2023-05-06T18:08:42.130Z,51366.72
2023-05-06T18:11:09.373Z,51398.53
2023-05-06T18:13:36.982Z,51348.81
2023-05-06T18:16:07.548Z,51358.75
2023-05-06T18:18:34.717Z,51332.91
2023-05-06T18:21:02.335Z,51350.81
2023-05-06T18:23:29.971Z,51344.84
2023-05-06T18:25:57.272Z,51354.78
2023-05-06T18:28:24.871Z,51340.88
2023-05-06T18:30:54.426Z,51346.84
2023-05-06T18:33:21.941Z,51340.88
2023-05-06T18:35:49.224Z,51340.88
2023-05-06T18:38:16.354Z,51366.72
2023-05-06T18:40:46.737Z,51342.84
2023-05-06T18:43:13.809Z,51334.91
2023-05-06T18:45:44.222Z,51338.88
2023-05-06T18:48:12.652Z,51330.94
2023-05-06T18:50:41.729Z,51326.94
2023-05-06T18:53:08.847Z,51346.84
2023-05-06T18:55:37.079Z,51338.88
2023-05-06T18:58:06.263Z,51336.91
2023-05-06T19:00:34.777Z,51372.69
2023-05-06T19:03:02.542Z,51322.97
2023-05-06T19:05:29.698Z,51326.94
2023-05-06T19:07:56.918Z,51326.94
2023-05-06T19:10:23.994Z,51356.78
2023-05-06T19:12:51.367Z,51342.84
2023-05-06T19:15:22.220Z,51344.84
2023-05-06T19:17:49.311Z,51322.97
2023-05-06T19:20:16.608Z,51342.84
2023-05-06T19:22:44.561Z,51340.88
2023-05-06T19:25:12.169Z,51332.91
2023-05-06T19:27:39.484Z,51338.88
2023-05-06T19:30:07.562Z,51334.91
2023-05-06T19:32:34.830Z,51319.00
2023-05-06T19:35:08.413Z,51334.91
2023-05-06T19:37:36.647Z,51366.72
2023-05-06T19:40:05.234Z,51315.03
2023-05-06T19:42:34.267Z,51321.00
2023-05-06T19:45:08.307Z,51326.94
2023-05-06T19:47:35.706Z,51334.91
2023-05-06T19:50:03.399Z,51321.00
2023-05-06T19:52:31.340Z,51317.00
2023-05-06T19:54:59.650Z,51356.78
2023-05-06T19:57:27.706Z,51340.88
2023-05-06T19:59:56.756Z,51334.91
2023-05-06T20:02:24.083Z,51313.03
2023-05-06T20:04:51.516Z,51315.03
2023-05-06T20:07:20.949Z,51332.91
2023-05-06T20:09:55.144Z,51330.94
2023-05-06T20:12:31.641Z,51305.09
2023-05-06T20:14:59.799Z,51340.88
2023-05-06T20:17:27.248Z,51352.78
2023-05-06T20:19:57.274Z,51315.03
2023-05-06T20:22:26.085Z,51305.09
2023-05-06T20:24:54.974Z,51330.94
2023-05-06T20:27:22.185Z,51324.97
2023-05-06T20:29:51.721Z,51330.94
2023-05-06T20:32:22.113Z,51338.88
2023-05-06T20:34:50.282Z,51334.91
2023-05-06T20:37:21.428Z,51348.81
2023-05-06T20:39:48.563Z,51301.09
2023-05-06T20:42:16.737Z,51313.03
2023-05-06T20:44:44.079Z,51336.91
2023-05-06T20:47:13.265Z,51313.03
2023-05-06T20:49:41.645Z,51305.09
2023-05-06T20:52:14.340Z,51336.91
2023-05-06T20:54:45.770Z,51305.09
2023-05-06T20:57:17.556Z,51322.97
2023-05-06T20:59:45.171Z,51321.00
2023-05-06T21:02:12.812Z,51332.91
2023-05-06T21:04:41.460Z,51317.00
2023-05-06T21:07:08.667Z,51321.00
2023-05-06T21:09:35.924Z,51352.78
2023-05-06T21:12:03.083Z,51301.09
2023-05-06T21:14:30.209Z,51332.91
2023-05-06T21:16:57.280Z,51307.06
2023-05-06T21:19:24.495Z,51356.78
2023-05-06T21:21:51.594Z,51324.97
2023-05-06T21:24:18.605Z,51326.94
2023-05-06T21:26:45.835Z,51322.97
2023-05-06T21:29:12.888Z,51322.97
2023-05-06T21:31:40.057Z,51322.97
2023-05-06T21:34:08.057Z,51324.97
2023-05-06T21:36:38.333Z,51334.91
2023-05-06T21:39:14.015Z,51330.94
2023-05-06T21:41:41.618Z,51311.06
2023-05-06T21:44:10.291Z,51321.00
2023-05-06T21:46:38.054Z,51305.09
2023-05-06T21:49:05.405Z,51344.84
2023-05-06T21:51:35.951Z,51336.91
2023-05-06T21:54:03.509Z,51342.84
2023-05-06T21:56:30.692Z,51346.84
2023-05-06T21:58:57.875Z,51340.88
2023-05-06T22:01:29.244Z,51338.88
2023-05-06T22:03:56.635Z,51334.91
2023-05-06T22:06:23.845Z,51328.94
2023-05-06T22:08:51.477Z,51330.94
2023-05-06T22:11:18.652Z,51328.94
2023-05-06T22:13:45.775Z,51348.81
2023-05-06T22:16:13.210Z,51324.97
2023-05-06T22:18:41.613Z,51342.84
2023-05-06T22:21:09.802Z,51328.94
2023-05-06T22:23:37.787Z,51299.13
2023-05-06T22:26:04.984Z,51322.97
2023-05-06T22:28:32.104Z,51324.97
2023-05-06T22:30:59.284Z,51313.03
2023-05-06T22:33:27.227Z,51332.91
2023-05-06T22:35:55.531Z,51311.06
2023-05-06T22:38:22.853Z,51311.06
2023-05-06T22:40:50.094Z,51313.03
2023-05-06T22:43:17.125Z,51340.88
2023-05-06T22:45:44.443Z,51319.00
2023-05-06T22:48:11.926Z,51332.91
2023-05-06T22:50:39.017Z,51326.94
2023-05-06T22:53:14.484Z,51319.00
2023-05-06T22:55:43.050Z,51330.94
2023-05-06T22:58:10.166Z,51328.94
2023-05-06T23:00:37.328Z,51319.00
2023-05-06T23:03:06.006Z,51315.03
2023-05-06T23:05:33.153Z,51317.00
2023-05-06T23:08:00.197Z,51297.13
2023-05-06T23:10:27.995Z,51330.94
2023-05-06T23:12:55.139Z,51322.97
2023-05-06T23:15:23.035Z,51315.03
2023-05-06T23:17:50.186Z,51283.22
2023-05-06T23:20:17.393Z,51321.00
2023-05-06T23:22:44.643Z,51289.19
2023-05-06T23:25:12.091Z,51297.13
2023-05-06T23:27:40.684Z,51313.03
2023-05-06T23:30:10.815Z,51336.91
2023-05-06T23:32:38.696Z,51324.97
2023-05-06T23:35:07.697Z,51293.16
2023-05-06T23:37:35.047Z,51311.06
2023-05-06T23:40:02.607Z,51305.09
2023-05-06T23:42:29.921Z,51324.97
2023-05-06T23:44:58.308Z,51311.06
2023-05-06T23:47:25.576Z,51321.00
2023-05-06T23:49:52.679Z,51311.06
2023-05-06T23:52:19.780Z,51326.94
2023-05-06T23:54:46.909Z,51321.00
2023-05-06T23:57:13.962Z,51315.03
2023-05-06T23:59:41.098Z,51309.06
